Time;durP1;ratioP1;P1;durP2;ratioP2;P2;SDS_P1;SDS_P2;PMS_P1;PMS_P2;Temp;Humidity;BMP_temperature;BMP_pressure;BME280_temperature;BME280_humidity;BME280_pressure;Samples;Min_cycle;Max_cycle;Signal;HPM_P1;HPM_P2
2021/11/27 00:00:17;;;;;;;3.15;2.33;;;;;;;;;;5109015;28;20174;-45
2021/11/27 00:02:43;;;;;;;3.13;2.00;;;;;;;;;;5115820;27;20198;-46
2021/11/27 00:05:09;;;;;;;2.45;1.83;;;;;;;;;;5106642;28;20610;-46
2021/11/27 00:07:35;;;;;;;2.17;1.98;;;;;;;;;;5130648;28;20201;-46
2021/11/27 00:10:02;;;;;;;2.20;2.00;;;;;;;;;;5117515;28;20201;-45
2021/11/27 00:12:28;;;;;;;2.25;2.05;;;;;;;;;;5128528;28;20176;-46
2021/11/27 00:14:54;;;;;;;2.50;2.00;;;;;;;;;;5108888;28;20169;-46
2021/11/27 00:17:19;;;;;;;2.10;1.90;;;;;;;;;;5124305;27;20181;-46
2021/11/27 00:19:46;;;;;;;3.25;2.47;;;;;;;;;;5124166;27;20189;-46
2021/11/27 00:22:12;;;;;;;2.60;2.15;;;;;;;;;;5111526;27;20177;-46
2021/11/27 00:24:38;;;;;;;1.92;1.80;;;;;;;;;;5127882;27;20183;-46
2021/11/27 00:27:04;;;;;;;2.70;2.20;;;;;;;;;;5134418;27;20184;-46
2021/11/27 00:29:30;;;;;;;1.95;1.80;;;;;;;;;;5129527;27;20207;-46
2021/11/27 00:31:56;;;;;;;2.50;2.15;;;;;;;;;;5120434;27;20189;-46
2021/11/27 00:34:22;;;;;;;1.77;1.67;;;;;;;;;;5126999;27;20176;-46
2021/11/27 00:36:48;;;;;;;2.40;2.20;;;;;;;;;;5117201;27;20906;-46
2021/11/27 00:39:14;;;;;;;2.72;2.03;;;;;;;;;;5120111;27;20176;-46
2021/11/27 00:41:41;;;;;;;2.00;1.90;;;;;;;;;;5123701;27;20193;-46
2021/11/27 00:44:07;;;;;;;2.20;1.73;;;;;;;;;;5122622;27;20255;-46
2021/11/27 00:46:33;;;;;;;2.22;2.03;;;;;;;;;;5125992;27;20176;-46
2021/11/27 00:48:59;;;;;;;2.15;1.95;;;;;;;;;;5128465;27;20227;-46
2021/11/27 00:51:25;;;;;;;1.98;1.80;;;;;;;;;;5119901;27;20212;-46
2021/11/27 00:53:52;;;;;;;1.90;1.80;;;;;;;;;;5120808;27;20173;-46
2021/11/27 00:56:19;;;;;;;2.13;1.92;;;;;;;;;;5124640;27;20193;-46
2021/11/27 00:58:45;;;;;;;2.45;1.90;;;;;;;;;;5107049;27;20256;-46
2021/11/27 01:01:13;;;;;;;2.20;2.00;;;;;;;;;;5124891;27;20471;-46
2021/11/27 01:03:39;;;;;;;2.75;2.47;;;;;;;;;;5121133;27;20275;-46
2021/11/27 01:06:07;;;;;;;2.60;2.08;;;;;;;;;;5119472;27;20189;-46
2021/11/27 01:08:34;;;;;;;2.35;1.90;;;;;;;;;;5119277;27;20232;-46
2021/11/27 01:11:01;;;;;;;3.63;2.28;;;;;;;;;;5123084;27;20197;-46
2021/11/27 01:13:27;;;;;;;2.30;2.10;;;;;;;;;;5121171;27;20220;-46
2021/11/27 01:15:54;;;;;;;2.00;1.80;;;;;;;;;;5121165;27;20192;-46
2021/11/27 01:18:20;;;;;;;2.45;2.00;;;;;;;;;;5118843;27;20236;-46
2021/11/27 01:20:48;;;;;;;2.25;2.05;;;;;;;;;;5125978;27;20180;-46
2021/11/27 01:23:14;;;;;;;2.10;1.95;;;;;;;;;;5121847;27;20204;-46
2021/11/27 01:25:40;;;;;;;2.08;1.90;;;;;;;;;;5128629;27;20183;-46
2021/11/27 01:28:06;;;;;;;2.10;1.88;;;;;;;;;;5104224;28;20915;-46
2021/11/27 01:30:33;;;;;;;2.30;2.10;;;;;;;;;;5124884;27;20614;-46
2021/11/27 01:32:59;;;;;;;3.05;2.08;;;;;;;;;;5128752;27;20184;-46
2021/11/27 01:35:25;;;;;;;4.80;2.28;;;;;;;;;;5120708;27;20189;-46
2021/11/27 01:37:51;;;;;;;2.38;2.13;;;;;;;;;;5121839;27;20256;-46
2021/11/27 01:40:20;;;;;;;2.10;2.00;;;;;;;;;;5122132;27;20180;-46
2021/11/27 01:42:46;;;;;;;2.05;1.88;;;;;;;;;;5123615;27;20607;-46
2021/11/27 01:45:14;;;;;;;2.35;2.00;;;;;;;;;;5112653;27;20178;-46
2021/11/27 01:47:45;;;;;;;2.28;2.03;;;;;;;;;;5115041;27;20180;-46
2021/11/27 01:50:11;;;;;;;2.10;1.80;;;;;;;;;;5118932;27;20612;-46
2021/11/27 01:52:37;;;;;;;2.20;2.00;;;;;;;;;;5128777;27;20298;-46
2021/11/27 01:55:03;;;;;;;2.22;2.03;;;;;;;;;;5125280;27;20293;-46
2021/11/27 01:57:29;;;;;;;2.17;1.83;;;;;;;;;;5115506;27;20177;-46
2021/11/27 01:59:57;;;;;;;2.20;1.90;;;;;;;;;;5113660;27;20197;-46
2021/11/27 02:02:23;;;;;;;2.28;2.03;;;;;;;;;;5120960;27;20201;-46
2021/11/27 02:04:51;;;;;;;2.28;2.08;;;;;;;;;;5124299;27;20618;-46
2021/11/27 02:07:17;;;;;;;2.40;2.20;;;;;;;;;;5117572;27;20178;-46
2021/11/27 02:09:43;;;;;;;2.15;1.95;;;;;;;;;;5125502;27;20534;-46
2021/11/27 02:12:11;;;;;;;2.00;1.80;;;;;;;;;;5125467;27;20177;-46
2021/11/27 02:14:37;;;;;;;1.90;1.77;;;;;;;;;;5114417;27;20229;-46
2021/11/27 02:17:03;;;;;;;2.08;1.88;;;;;;;;;;5107005;27;20174;-46
2021/11/27 02:19:29;;;;;;;1.80;1.70;;;;;;;;;;5112526;27;20191;-46
2021/11/27 02:21:55;;;;;;;1.75;1.65;;;;;;;;;;5120834;27;20188;-46
2021/11/27 02:24:23;;;;;;;2.17;1.98;;;;;;;;;;5124049;27;20181;-46
2021/11/27 02:26:49;;;;;;;2.30;1.83;;;;;;;;;;5130411;27;20169;-45
2021/11/27 02:29:20;;;;;;;2.47;1.77;;;;;;;;;;5127164;27;20227;-46
2021/11/27 02:31:46;;;;;;;2.55;2.25;;;;;;;;;;5115827;27;20307;-46
2021/11/27 02:34:13;;;;;;;2.20;2.00;;;;;;;;;;5117562;27;20242;-46
2021/11/27 02:36:40;;;;;;;2.08;1.85;;;;;;;;;;5123718;27;20177;-46
2021/11/27 02:39:08;;;;;;;2.55;1.90;;;;;;;;;;5114481;27;20465;-46
2021/11/27 02:41:34;;;;;;;2.10;1.63;;;;;;;;;;5121771;27;20638;-46
2021/11/27 02:44:00;;;;;;;1.90;1.80;;;;;;;;;;5126306;27;20254;-46
2021/11/27 02:46:26;;;;;;;2.13;1.92;;;;;;;;;;5120375;27;20569;-46
2021/11/27 02:48:52;;;;;;;1.95;1.75;;;;;;;;;;5108688;27;20287;-46
2021/11/27 02:51:18;;;;;;;1.83;1.67;;;;;;;;;;5117046;27;20226;-46
2021/11/27 02:53:44;;;;;;;1.63;1.48;;;;;;;;;;5122094;27;20251;-46
2021/11/27 02:56:10;;;;;;;2.40;2.05;;;;;;;;;;5122490;27;20240;-46
2021/11/27 02:58:36;;;;;;;1.77;1.50;;;;;;;;;;5117727;27;20185;-46
2021/11/27 03:01:04;;;;;;;2.15;1.95;;;;;;;;;;5116381;27;20235;-46
2021/11/27 03:03:30;;;;;;;1.70;1.60;;;;;;;;;;5111234;27;20192;-46
2021/11/27 03:05:56;;;;;;;2.13;1.92;;;;;;;;;;5122803;27;20180;-46
2021/11/27 03:08:22;;;;;;;2.03;1.73;;;;;;;;;;5108335;27;20219;-46
2021/11/27 03:10:48;;;;;;;2.15;1.95;;;;;;;;;;5114833;27;20218;-46
2021/11/27 03:13:14;;;;;;;2.30;2.10;;;;;;;;;;5120644;27;20268;-46
2021/11/27 03:15:43;;;;;;;2.10;1.73;;;;;;;;;;5116599;27;20178;-46
2021/11/27 03:18:10;;;;;;;2.85;2.00;;;;;;;;;;5106651;28;20185;-46
2021/11/27 03:20:39;;;;;;;2.10;1.90;;;;;;;;;;5126217;27;20184;-46
2021/11/27 03:23:05;;;;;;;2.22;1.70;;;;;;;;;;5117106;27;20210;-46
2021/11/27 03:25:31;;;;;;;2.00;1.90;;;;;;;;;;5125832;27;20172;-46
2021/11/27 03:27:57;;;;;;;2.70;2.03;;;;;;;;;;5119256;27;20189;-46
2021/11/27 03:30:23;;;;;;;1.88;1.77;;;;;;;;;;5121906;27;20176;-46
2021/11/27 03:32:49;;;;;;;2.08;1.88;;;;;;;;;;5125251;27;20181;-46
2021/11/27 03:35:16;;;;;;;2.35;2.00;;;;;;;;;;5123383;27;20165;-46
2021/11/27 03:37:42;;;;;;;1.92;1.83;;;;;;;;;;5120341;27;20169;-46
2021/11/27 03:40:08;;;;;;;2.22;1.80;;;;;;;;;;5118553;27;20188;-46
2021/11/27 03:42:34;;;;;;;2.10;1.90;;;;;;;;;;5114781;27;20191;-46
2021/11/27 03:45:01;;;;;;;2.92;2.50;;;;;;;;;;5121692;27;20173;-46
2021/11/27 03:47:27;;;;;;;2.25;2.05;;;;;;;;;;5115468;27;20507;-46
2021/11/27 03:49:53;;;;;;;2.17;1.98;;;;;;;;;;5110664;27;20224;-46
2021/11/27 03:52:20;;;;;;;2.75;2.10;;;;;;;;;;5121386;27;20178;-46
2021/11/27 03:54:47;;;;;;;1.95;1.83;;;;;;;;;;5118198;27;20184;-46
2021/11/27 03:57:14;;;;;;;1.98;1.88;;;;;;;;;;5123387;27;20176;-46
2021/11/27 03:59:40;;;;;;;2.20;1.98;;;;;;;;;;5122024;27;20263;-46
2021/11/27 04:02:06;;;;;;;2.67;2.33;;;;;;;;;;5118222;27;20444;-46
2021/11/27 04:04:34;;;;;;;2.30;2.10;;;;;;;;;;5115763;28;20282;-46
2021/11/27 04:07:00;;;;;;;2.30;2.10;;;;;;;;;;5120636;28;20516;-46
2021/11/27 04:09:26;;;;;;;2.08;1.85;;;;;;;;;;5117857;28;20639;-46
2021/11/27 04:11:52;;;;;;;2.15;1.95;;;;;;;;;;5114680;28;20169;-46
2021/11/27 04:14:18;;;;;;;2.58;1.80;;;;;;;;;;5126188;28;20469;-46
2021/11/27 04:16:45;;;;;;;1.70;1.60;;;;;;;;;;5127780;28;20171;-46
2021/11/27 04:19:11;;;;;;;1.98;1.77;;;;;;;;;;5114570;28;20282;-46
2021/11/27 04:21:37;;;;;;;2.22;2.03;;;;;;;;;;5127626;28;20209;-46
2021/11/27 04:24:03;;;;;;;2.60;2.20;;;;;;;;;;5124911;28;20180;-46
2021/11/27 04:26:30;;;;;;;1.85;1.75;;;;;;;;;;5110919;28;20264;-46
2021/11/27 04:28:56;;;;;;;2.63;2.35;;;;;;;;;;5110135;28;20444;-46
2021/11/27 04:31:23;;;;;;;2.42;2.22;;;;;;;;;;5126011;28;20186;-46
2021/11/27 04:33:50;;;;;;;2.20;2.00;;;;;;;;;;5126903;28;20176;-46
2021/11/27 04:36:19;;;;;;;2.28;2.08;;;;;;;;;;5122446;28;20173;-46
2021/11/27 04:38:45;;;;;;;2.42;2.22;;;;;;;;;;5110398;28;20752;-46
2021/11/27 04:41:12;;;;;;;2.97;2.50;;;;;;;;;;5124476;28;20172;-46
2021/11/27 04:43:38;;;;;;;2.35;2.15;;;;;;;;;;5124982;28;20176;-46
2021/11/27 04:46:04;;;;;;;2.45;2.20;;;;;;;;;;5092790;28;20805;-46
2021/11/27 04:48:30;;;;;;;2.75;2.28;;;;;;;;;;5108084;28;20208;-46
2021/11/27 04:50:56;;;;;;;2.42;2.22;;;;;;;;;;5126140;28;20190;-46
2021/11/27 04:53:22;;;;;;;1.98;1.83;;;;;;;;;;5117830;28;20189;-46
2021/11/27 04:55:48;;;;;;;2.53;2.30;;;;;;;;;;5126311;28;20195;-46
2021/11/27 04:58:14;;;;;;;2.05;1.80;;;;;;;;;;5121640;28;21089;-46
2021/11/27 05:00:42;;;;;;;2.30;1.92;;;;;;;;;;5117400;28;20204;-46
2021/11/27 05:03:08;;;;;;;2.25;2.05;;;;;;;;;;5108712;27;20266;-46
2021/11/27 05:05:34;;;;;;;2.03;1.90;;;;;;;;;;5103366;27;20538;-46
2021/11/27 05:08:00;;;;;;;2.13;1.92;;;;;;;;;;5122283;27;20181;-46
2021/11/27 05:10:27;;;;;;;2.53;2.20;;;;;;;;;;5114439;27;20190;-46
2021/11/27 05:12:53;;;;;;;2.28;2.08;;;;;;;;;;5128512;27;20169;-46
2021/11/27 05:15:19;;;;;;;2.08;1.90;;;;;;;;;;5124486;27;20177;-46
2021/11/27 05:17:45;;;;;;;2.40;2.20;;;;;;;;;;5134603;27;20297;-46
2021/11/27 05:20:11;;;;;;;2.10;2.00;;;;;;;;;;5112667;27;20476;-46
2021/11/27 05:22:38;;;;;;;2.53;2.30;;;;;;;;;;5110039;27;20177;-46
2021/11/27 05:25:05;;;;;;;2.45;2.25;;;;;;;;;;5123037;27;20342;-46
2021/11/27 05:27:31;;;;;;;2.15;1.92;;;;;;;;;;5127774;27;20208;-46
2021/11/27 05:29:57;;;;;;;2.78;2.38;;;;;;;;;;5116178;27;20294;-46
2021/11/27 05:32:25;;;;;;;2.53;2.28;;;;;;;;;;5124948;27;20230;-46
2021/11/27 05:34:51;;;;;;;1.88;1.77;;;;;;;;;;5124711;27;20191;-46
2021/11/27 05:37:18;;;;;;;2.65;2.10;;;;;;;;;;5124164;27;20162;-46
2021/11/27 05:39:44;;;;;;;2.58;2.25;;;;;;;;;;5104113;27;20488;-46
2021/11/27 05:42:11;;;;;;;2.38;2.17;;;;;;;;;;5119482;27;20447;-46
2021/11/27 05:44:37;;;;;;;1.83;1.73;;;;;;;;;;5128738;27;20185;-46
2021/11/27 05:47:03;;;;;;;2.22;2.13;;;;;;;;;;5119887;27;20177;-46
2021/11/27 05:49:30;;;;;;;1.83;1.73;;;;;;;;;;5107201;27;20209;-45
2021/11/27 05:51:56;;;;;;;2.10;1.90;;;;;;;;;;5114045;27;20209;-46
2021/11/27 05:54:22;;;;;;;2.30;2.10;;;;;;;;;;5117884;27;20418;-46
2021/11/27 05:56:48;;;;;;;2.72;2.20;;;;;;;;;;5123146;27;20215;-46
2021/11/27 05:59:14;;;;;;;2.25;2.05;;;;;;;;;;5114575;27;20173;-46
2021/11/27 06:01:40;;;;;;;2.20;2.00;;;;;;;;;;5116760;27;20208;-46
2021/11/27 06:04:06;;;;;;;2.03;1.92;;;;;;;;;;5111593;27;20207;-46
2021/11/27 06:06:32;;;;;;;2.28;2.08;;;;;;;;;;5125569;27;20227;-46
2021/11/27 06:09:00;;;;;;;2.20;2.00;;;;;;;;;;5119150;27;20622;-46
2021/11/27 06:11:26;;;;;;;1.90;1.80;;;;;;;;;;5121603;27;20188;-46
2021/11/27 06:13:52;;;;;;;2.28;2.08;;;;;;;;;;5119940;27;20561;-46
2021/11/27 06:16:18;;;;;;;2.50;2.30;;;;;;;;;;5128555;27;20168;-46
2021/11/27 06:18:44;;;;;;;2.40;2.10;;;;;;;;;;5130686;27;20559;-46
2021/11/27 06:21:10;;;;;;;2.28;2.08;;;;;;;;;;5123339;27;20180;-46
2021/11/27 06:23:36;;;;;;;2.58;1.95;;;;;;;;;;5112659;27;20245;-46
2021/11/27 06:26:02;;;;;;;2.47;2.28;;;;;;;;;;5120079;27;20487;-46
2021/11/27 06:28:28;;;;;;;2.10;1.90;;;;;;;;;;5118209;27;20300;-46
2021/11/27 06:30:54;;;;;;;1.80;1.70;;;;;;;;;;5114692;27;20184;-45
2021/11/27 06:33:21;;;;;;;2.53;2.28;;;;;;;;;;5118963;27;20183;-45
2021/11/27 06:35:47;;;;;;;2.28;2.08;;;;;;;;;;5096570;28;20195;-48
2021/11/27 06:38:13;;;;;;;2.70;1.70;;;;;;;;;;5100774;28;20435;-49
2021/11/27 06:40:39;;;;;;;2.95;1.92;;;;;;;;;;5104496;28;20208;-48
2021/11/27 06:43:05;;;;;;;3.05;2.17;;;;;;;;;;5095451;28;20676;-48
2021/11/27 06:45:32;;;;;;;5.25;1.80;;;;;;;;;;5095666;28;20190;-48
2021/11/27 06:47:58;;;;;;;5.97;2.35;;;;;;;;;;5106532;28;20178;-44
2021/11/27 06:50:25;;;;;;;8.05;3.03;;;;;;;;;;5108890;27;20217;-47
2021/11/27 06:52:51;;;;;;;4.00;2.33;;;;;;;;;;5115605;27;20264;-47
2021/11/27 06:55:17;;;;;;;7.20;2.50;;;;;;;;;;5114863;27;20209;-47
2021/11/27 06:57:43;;;;;;;10.60;2.58;;;;;;;;;;5123391;27;20172;-47
2021/11/27 07:00:11;;;;;;;7.88;2.42;;;;;;;;;;5123407;27;20220;-47
2021/11/27 07:02:37;;;;;;;6.97;2.47;;;;;;;;;;5118765;27;20204;-47
2021/11/27 07:05:03;;;;;;;6.30;2.42;;;;;;;;;;5116019;27;20270;-47
2021/11/27 07:07:29;;;;;;;6.35;2.58;;;;;;;;;;5133701;27;20184;-47
2021/11/27 07:09:55;;;;;;;5.13;2.45;;;;;;;;;;5110380;27;20216;-47
2021/11/27 07:12:22;;;;;;;4.93;2.17;;;;;;;;;;5124620;27;20592;-47
2021/11/27 07:14:49;;;;;;;4.10;2.53;;;;;;;;;;5127906;27;20188;-47
2021/11/27 07:17:15;;;;;;;8.98;2.40;;;;;;;;;;5119135;27;20435;-47
2021/11/27 07:19:41;;;;;;;4.20;2.22;;;;;;;;;;5115643;27;20176;-47
2021/11/27 07:22:07;;;;;;;4.90;2.22;;;;;;;;;;5117795;27;20183;-47
2021/11/27 07:24:33;;;;;;;6.38;2.50;;;;;;;;;;5124927;27;20483;-47
2021/11/27 07:27:03;;;;;;;4.50;2.00;;;;;;;;;;5125369;27;20180;-47
2021/11/27 07:29:32;;;;;;;4.97;2.35;;;;;;;;;;5122925;27;20228;-47
2021/11/27 07:31:58;;;;;;;6.45;2.10;;;;;;;;;;5120702;27;20173;-47
2021/11/27 07:34:24;;;;;;;2.88;2.20;;;;;;;;;;5122065;27;20200;-47
2021/11/27 07:36:50;;;;;;;3.95;2.05;;;;;;;;;;5122118;27;20187;-47
2021/11/27 07:39:17;;;;;;;6.13;2.50;;;;;;;;;;5103925;27;20270;-47
2021/11/27 07:41:43;;;;;;;4.57;2.15;;;;;;;;;;5112817;27;20255;-47
2021/11/27 07:44:09;;;;;;;3.42;1.45;;;;;;;;;;5118003;27;20199;-47
2021/11/27 07:46:35;;;;;;;4.70;2.10;;;;;;;;;;5113528;27;20263;-47
2021/11/27 07:49:01;;;;;;;3.17;2.05;;;;;;;;;;5107822;27;20239;-47
2021/11/27 07:51:30;;;;;;;7.78;2.38;;;;;;;;;;5118264;28;20205;-62
2021/11/27 07:53:56;;;;;;;7.13;2.70;;;;;;;;;;5102811;28;20802;-62
2021/11/27 07:56:22;;;;;;;4.72;2.15;;;;;;;;;;5101007;27;20196;-62
2021/11/27 07:58:48;;;;;;;5.28;2.30;;;;;;;;;;5108023;28;20234;-62
2021/11/27 08:01:15;;;;;;;6.55;2.10;;;;;;;;;;5102646;28;20209;-62
2021/11/27 08:03:41;;;;;;;6.60;2.70;;;;;;;;;;5107387;28;20189;-62
2021/11/27 08:06:07;;;;;;;3.50;2.25;;;;;;;;;;5112988;28;20191;-62
2021/11/27 08:08:33;;;;;;;3.88;2.08;;;;;;;;;;5116938;28;20212;-62
2021/11/27 08:11:00;;;;;;;5.38;2.10;;;;;;;;;;5125388;28;20176;-62
2021/11/27 08:13:26;;;;;;;5.10;1.85;;;;;;;;;;5115756;28;20203;-62
2021/11/27 08:15:52;;;;;;;3.03;2.08;;;;;;;;;;5122096;28;20173;-62
2021/11/27 08:18:18;;;;;;;4.22;2.30;;;;;;;;;;5109806;28;20181;-62
2021/11/27 08:20:49;;;;;;;5.93;2.13;;;;;;;;;;5122591;28;20181;-62
2021/11/27 08:23:15;;;;;;;5.85;2.50;;;;;;;;;;5099036;28;20634;-62
2021/11/27 08:25:41;;;;;;;3.92;2.15;;;;;;;;;;5109620;28;20272;-62
2021/11/27 08:28:07;;;;;;;3.83;2.28;;;;;;;;;;5117733;28;20180;-62
2021/11/27 08:30:33;;;;;;;5.13;2.25;;;;;;;;;;5124082;28;20244;-62
2021/11/27 08:32:59;;;;;;;6.68;2.30;;;;;;;;;;5120676;28;20240;-62
2021/11/27 08:35:25;;;;;;;2.72;2.00;;;;;;;;;;5110586;28;20182;-62
2021/11/27 08:37:51;;;;;;;3.35;1.98;;;;;;;;;;5107192;27;20596;-62
2021/11/27 08:40:17;;;;;;;6.07;2.28;;;;;;;;;;5111845;27;20431;-62
2021/11/27 08:42:45;;;;;;;7.90;2.08;;;;;;;;;;5107949;27;20185;-62
2021/11/27 08:45:11;;;;;;;4.07;2.20;;;;;;;;;;5121055;27;20196;-62
2021/11/27 08:47:37;;;;;;;2.38;1.92;;;;;;;;;;5118910;27;20178;-62
2021/11/27 08:50:04;;;;;;;3.88;2.05;;;;;;;;;;5110828;27;20209;-62
2021/11/27 08:52:30;;;;;;;3.13;2.22;;;;;;;;;;5110837;27;20176;-62
2021/11/27 08:54:56;;;;;;;4.32;2.20;;;;;;;;;;5126429;27;20183;-62
2021/11/27 08:57:23;;;;;;;4.53;2.03;;;;;;;;;;5103484;27;20453;-62
2021/11/27 08:59:49;;;;;;;3.00;2.10;;;;;;;;;;5114222;27;20185;-62
2021/11/27 09:02:15;;;;;;;6.80;2.40;;;;;;;;;;5126423;27;20211;-62
2021/11/27 09:04:41;;;;;;;5.43;2.08;;;;;;;;;;5117667;27;20184;-48
2021/11/27 09:07:07;;;;;;;5.55;1.85;;;;;;;;;;5123201;27;20441;-49
2021/11/27 09:09:34;;;;;;;4.95;2.03;;;;;;;;;;5118461;27;20247;-49
2021/11/27 09:12:00;;;;;;;9.05;2.20;;;;;;;;;;5106988;27;20596;-49
2021/11/27 09:14:26;;;;;;;4.05;2.13;;;;;;;;;;5102097;27;20182;-47
2021/11/27 09:16:53;;;;;;;7.57;2.20;;;;;;;;;;5104517;28;20192;-47
2021/11/27 09:19:20;;;;;;;3.42;2.20;;;;;;;;;;5107980;27;20222;-47
2021/11/27 09:21:46;;;;;;;3.67;2.00;;;;;;;;;;5105926;27;20472;-47
2021/11/27 09:24:12;;;;;;;4.28;1.90;;;;;;;;;;5106080;28;20280;-47
2021/11/27 09:26:39;;;;;;;6.93;2.20;;;;;;;;;;5106598;27;20173;-47
2021/11/27 09:29:09;;;;;;;3.70;1.65;;;;;;;;;;5105735;28;20209;-47
2021/11/27 09:31:39;;;;;;;2.28;1.67;;;;;;;;;;5120427;27;20177;-47
2021/11/27 09:34:09;;;;;;;4.07;1.85;;;;;;;;;;5126496;27;20169;-47
2021/11/27 09:36:36;;;;;;;3.53;1.73;;;;;;;;;;5117162;27;20188;-47
2021/11/27 09:39:03;;;;;;;2.75;1.50;;;;;;;;;;5112501;27;20169;-47
2021/11/27 09:41:30;;;;;;;4.60;1.80;;;;;;;;;;5122938;27;20183;-47
2021/11/27 09:43:57;;;;;;;2.67;1.77;;;;;;;;;;5115236;27;20181;-47
2021/11/27 09:46:23;;;;;;;4.70;1.67;;;;;;;;;;5125413;27;20199;-48
2021/11/27 09:48:51;;;;;;;4.70;1.95;;;;;;;;;;5109682;27;20208;-47
2021/11/27 09:51:21;;;;;;;5.40;1.65;;;;;;;;;;5126248;27;20589;-47
2021/11/27 09:53:48;;;;;;;3.60;1.70;;;;;;;;;;5126539;27;20296;-47
2021/11/27 09:56:16;;;;;;;3.10;1.60;;;;;;;;;;5119200;27;20174;-47
2021/11/27 09:58:42;;;;;;;2.95;1.77;;;;;;;;;;5114626;27;20216;-47
2021/11/27 10:01:08;;;;;;;2.47;1.45;;;;;;;;;;5105722;27;20181;-48
2021/11/27 10:03:35;;;;;;;5.78;1.80;;;;;;;;;;5122912;27;20204;-47
2021/11/27 10:06:02;;;;;;;3.28;1.52;;;;;;;;;;5120866;27;20200;-47
2021/11/27 10:08:28;;;;;;;1.80;1.70;;;;;;;;;;5123134;27;20231;-47
2021/11/27 10:10:54;;;;;;;2.55;1.45;;;;;;;;;;5122936;27;20533;-47
2021/11/27 10:13:21;;;;;;;1.90;1.58;;;;;;;;;;5116979;27;20184;-47
2021/11/27 10:15:47;;;;;;;3.03;1.80;;;;;;;;;;5122468;27;20184;-47
2021/11/27 10:18:23;;;;;;;3.15;1.48;;;;;;;;;;5114422;27;20249;-47
2021/11/27 10:21:09;;;;;;;2.58;1.48;;;;;;;;;;5118164;27;20179;-47
2021/11/27 10:23:37;;;;;;;2.38;1.65;;;;;;;;;;5100782;27;20189;-47
2021/11/27 10:26:03;;;;;;;2.55;1.50;;;;;;;;;;5120451;27;20206;-47
2021/11/27 10:28:29;;;;;;;1.77;1.33;;;;;;;;;;5125628;27;20212;-47
2021/11/27 10:31:02;;;;;;;1.98;1.52;;;;;;;;;;5124328;27;20172;-47
2021/11/27 10:33:30;;;;;;;2.22;1.90;;;;;;;;;;5124732;27;20273;-47
2021/11/27 10:35:58;;;;;;;3.10;1.38;;;;;;;;;;5106079;27;20203;-47
2021/11/27 10:38:57;;;;;;;2.47;1.48;;;;;;;;;;5120452;27;20556;-47
2021/11/27 10:41:23;;;;;;;1.65;1.35;;;;;;;;;;5095807;27;20193;-47
2021/11/27 10:44:02;;;;;;;2.35;1.40;;;;;;;;;;5125904;27;20180;-47
2021/11/27 10:46:32;;;;;;;2.28;1.38;;;;;;;;;;5110504;27;20266;-47
2021/11/27 10:48:58;;;;;;;2.17;1.58;;;;;;;;;;5122055;27;20575;-47
2021/11/27 10:51:25;;;;;;;2.90;1.70;;;;;;;;;;5114961;27;20190;-47
2021/11/27 10:53:55;;;;;;;1.33;1.23;;;;;;;;;;5102950;28;20177;-47
2021/11/27 10:56:21;;;;;;;2.30;1.58;;;;;;;;;;5108915;28;20445;-47
2021/11/27 10:59:00;;;;;;;2.38;1.50;;;;;;;;;;5109950;28;20185;-47
2021/11/27 11:01:27;;;;;;;1.52;1.40;;;;;;;;;;5106394;28;20184;-47
2021/11/27 11:03:53;;;;;;;1.60;1.42;;;;;;;;;;5113030;28;20280;-47
2021/11/27 11:06:19;;;;;;;1.80;1.35;;;;;;;;;;5119429;27;20189;-47
2021/11/27 11:08:48;;;;;;;1.55;1.40;;;;;;;;;;5118114;27;20216;-47
2021/11/27 11:11:23;;;;;;;1.77;1.38;;;;;;;;;;5122287;27;20176;-47
2021/11/27 11:13:54;;;;;;;1.13;1.02;;;;;;;;;;5120317;27;20187;-47
2021/11/27 11:16:21;;;;;;;1.60;1.45;;;;;;;;;;5122659;27;20214;-47
2021/11/27 11:18:51;;;;;;;2.25;1.40;;;;;;;;;;5121688;27;20184;-47
2021/11/27 11:21:17;;;;;;;1.50;1.40;;;;;;;;;;5120064;27;20256;-47
2021/11/27 11:23:43;;;;;;;1.30;1.20;;;;;;;;;;5116964;27;20231;-47
2021/11/27 11:26:15;;;;;;;1.67;1.50;;;;;;;;;;5121761;27;20452;-47
2021/11/27 11:29:01;;;;;;;1.45;1.35;;;;;;;;;;5126141;27;20204;-47
2021/11/27 11:31:28;;;;;;;1.58;1.48;;;;;;;;;;5117815;27;20184;-47
2021/11/27 11:33:56;;;;;;;2.03;1.25;;;;;;;;;;5119099;27;20264;-47
2021/11/27 11:36:23;;;;;;;1.50;1.40;;;;;;;;;;5114144;27;20185;-47
2021/11/27 11:38:50;;;;;;;1.48;1.38;;;;;;;;;;5112803;27;20189;-47
2021/11/27 11:41:17;;;;;;;1.15;1.05;;;;;;;;;;5117248;27;20181;-47
2021/11/27 11:43:44;;;;;;;1.80;1.60;;;;;;;;;;5120570;27;20582;-47
2021/11/27 11:46:10;;;;;;;1.50;1.40;;;;;;;;;;5117438;27;20173;-47
2021/11/27 11:48:38;;;;;;;1.23;1.13;;;;;;;;;;5124169;27;20204;-47
2021/11/27 11:51:22;;;;;;;1.67;1.58;;;;;;;;;;5118025;27;20181;-47
2021/11/27 11:53:50;;;;;;;1.60;1.50;;;;;;;;;;5114507;27;20168;-47
2021/11/27 11:56:17;;;;;;;2.20;1.70;;;;;;;;;;5123788;27;20176;-47
2021/11/27 11:58:46;;;;;;;1.40;1.30;;;;;;;;;;5116996;27;20452;-47
2021/11/27 12:01:14;;;;;;;1.60;1.38;;;;;;;;;;5123249;27;20198;-47
2021/11/27 12:03:41;;;;;;;1.10;1.05;;;;;;;;;;5123994;27;20203;-47
2021/11/27 12:06:11;;;;;;;3.22;1.45;;;;;;;;;;5126075;27;20196;-47
2021/11/27 12:08:52;;;;;;;1.48;1.25;;;;;;;;;;5105425;28;20537;-47
2021/11/27 12:11:37;;;;;;;1.67;1.17;;;;;;;;;;5131712;27;20172;-47
2021/11/27 12:14:03;;;;;;;1.13;1.10;;;;;;;;;;5124657;27;20173;-47
2021/11/27 12:16:29;;;;;;;1.17;1.10;;;;;;;;;;5137267;27;20188;-47
2021/11/27 12:19:09;;;;;;;1.52;1.42;;;;;;;;;;5127083;27;20184;-47
2021/11/27 12:21:35;;;;;;;1.65;1.20;;;;;;;;;;5107058;27;20198;-47
2021/11/27 12:24:01;;;;;;;1.20;1.10;;;;;;;;;;5112115;27;20245;-47
2021/11/27 12:26:27;;;;;;;1.15;1.10;;;;;;;;;;5133177;27;20260;-47
2021/11/27 12:28:55;;;;;;;1.20;1.10;;;;;;;;;;5126026;27;20208;-47
2021/11/27 12:31:24;;;;;;;1.63;1.52;;;;;;;;;;5115058;27;20197;-47
2021/11/27 12:33:50;;;;;;;1.20;1.10;;;;;;;;;;5125303;27;20551;-47
2021/11/27 12:36:25;;;;;;;1.50;1.40;;;;;;;;;;5120832;27;20207;-47
2021/11/27 12:39:03;;;;;;;1.30;1.20;;;;;;;;;;5109963;27;20185;-47
2021/11/27 12:41:35;;;;;;;2.50;1.30;;;;;;;;;;5130786;27;20200;-47
2021/11/27 12:44:12;;;;;;;1.52;1.17;;;;;;;;;;5131533;27;20183;-47
2021/11/27 12:46:38;;;;;;;1.33;1.23;;;;;;;;;;5111077;27;20175;-47
2021/11/27 12:49:04;;;;;;;1.20;1.10;;;;;;;;;;5129322;27;20575;-47
2021/11/27 12:51:31;;;;;;;1.63;1.30;;;;;;;;;;5130509;27;20177;-47
2021/11/27 12:54:04;;;;;;;1.42;1.33;;;;;;;;;;5110425;27;20603;-47
2021/11/27 12:56:29;;;;;;;3.00;1.20;;;;;;;;;;5133624;27;20268;-47
2021/11/27 12:58:57;;;;;;;1.90;1.33;;;;;;;;;;5122034;27;20553;-47
2021/11/27 13:01:26;;;;;;;1.40;1.30;;;;;;;;;;5127082;27;20548;-47
2021/11/27 13:03:53;;;;;;;3.83;1.50;;;;;;;;;;5123514;27;20219;-47
2021/11/27 13:06:19;;;;;;;1.40;1.30;;;;;;;;;;5123830;27;20236;-47
2021/11/27 13:08:45;;;;;;;3.72;1.52;;;;;;;;;;5118575;27;20207;-47
2021/11/27 13:11:13;;;;;;;4.65;2.00;;;;;;;;;;5131539;27;20176;-47
2021/11/27 13:13:40;;;;;;;4.07;1.52;;;;;;;;;;5129396;27;20270;-45
2021/11/27 13:16:10;;;;;;;4.28;1.83;;;;;;;;;;5134822;27;20435;-44
2021/11/27 13:18:37;;;;;;;5.55;1.77;;;;;;;;;;5122401;27;20180;-45
2021/11/27 13:21:06;;;;;;;10.57;2.22;;;;;;;;;;5128437;27;20234;-48
2021/11/27 13:23:37;;;;;;;9.95;2.40;;;;;;;;;;5123952;27;20183;-46
2021/11/27 13:26:04;;;;;;;14.20;2.17;;;;;;;;;;5125964;27;20172;-45
2021/11/27 13:28:34;;;;;;;9.05;2.25;;;;;;;;;;5114217;27;20689;-46
2021/11/27 13:31:01;;;;;;;9.48;3.20;;;;;;;;;;5128429;27;20180;-45
2021/11/27 13:33:28;;;;;;;16.40;5.20;;;;;;;;;;5126387;27;20411;-49
2021/11/27 13:35:54;;;;;;;21.77;5.85;;;;;;;;;;5120142;27;20230;-48
2021/11/27 13:38:28;;;;;;;16.38;4.78;;;;;;;;;;5119391;27;20177;-48
2021/11/27 13:40:54;;;;;;;15.95;4.32;;;;;;;;;;5126568;27;20200;-48
2021/11/27 13:43:20;;;;;;;12.40;4.45;;;;;;;;;;5132502;27;20181;-48
2021/11/27 13:45:46;;;;;;;10.40;3.90;;;;;;;;;;5119669;27;20479;-49
2021/11/27 13:48:12;;;;;;;11.32;3.65;;;;;;;;;;5123165;27;20616;-48
2021/11/27 13:50:42;;;;;;;7.65;3.03;;;;;;;;;;5128226;27;20445;-49
2021/11/27 13:53:09;;;;;;;7.20;3.30;;;;;;;;;;5125456;27;20168;-48
2021/11/27 13:55:42;;;;;;;11.15;3.47;;;;;;;;;;5115041;27;20199;-48
2021/11/27 13:58:13;;;;;;;5.35;2.75;;;;;;;;;;5123444;27;20176;-47
2021/11/27 14:00:39;;;;;;;8.45;3.10;;;;;;;;;;5116351;27;20418;-49
2021/11/27 14:03:10;;;;;;;6.43;2.80;;;;;;;;;;5123418;27;20189;-48
2021/11/27 14:05:37;;;;;;;7.20;3.10;;;;;;;;;;5108687;27;20262;-48
2021/11/27 14:08:11;;;;;;;9.18;2.97;;;;;;;;;;5109241;27;20250;-48
2021/11/27 14:10:39;;;;;;;8.57;3.00;;;;;;;;;;5113458;27;20543;-48
2021/11/27 14:13:06;;;;;;;8.73;2.78;;;;;;;;;;5123910;27;20487;-48
2021/11/27 14:15:40;;;;;;;8.68;2.45;;;;;;;;;;5099801;27;20172;-48
2021/11/27 14:18:08;;;;;;;7.28;2.63;;;;;;;;;;5118345;27;20461;-47
2021/11/27 14:20:35;;;;;;;7.88;2.42;;;;;;;;;;5115293;27;20185;-48
2021/11/27 14:23:02;;;;;;;7.63;2.47;;;;;;;;;;5121107;27;20292;-48
2021/11/27 14:25:29;;;;;;;5.07;2.38;;;;;;;;;;5116847;27;20233;-48
2021/11/27 14:28:00;;;;;;;7.57;4.60;;;;;;;;;;5103937;27;20178;-48
2021/11/27 14:30:30;;;;;;;8.75;6.38;;;;;;;;;;5117463;27;20205;-49
2021/11/27 14:33:15;;;;;;;8.70;6.20;;;;;;;;;;5089292;28;20270;-49
2021/11/27 14:35:41;;;;;;;14.00;5.57;;;;;;;;;;5105561;27;20177;-48
2021/11/27 14:38:08;;;;;;;7.25;5.05;;;;;;;;;;5106446;27;20215;-48
2021/11/27 14:41:01;;;;;;;8.93;5.80;;;;;;;;;;5114410;27;20173;-48
2021/11/27 14:43:27;;;;;;;6.15;4.50;;;;;;;;;;5111455;27;20512;-48